BWA231 TBPB-TGPY
Flight info
| Callsign | BWA231 |
|---|---|
| Flight time | 0h 42m |
| Altitude | 16000 |
| Route | D230N DCT RAKAN DCT YOLKK DCT LEXAS DCT ALRAG DCT EBGAN DCT KAPAM DCT ANEBA |
| Aircraft | AT76/M-SDFGIRY/S |
Departure
| Time | 2026-04-15 20:36 |
|---|---|
| Airport | Grantley Adams International Airport (TBPB) |
Arrival
| Time | 2026-04-15 21:18 |
|---|---|
| Airport | Maurice Bishop International Airport (TGPY) |
| Time | Latitude | Longitude | Altitude | Speed | Heading |
|---|---|---|---|---|---|
| 2026-04-15 20:23 | 13.07875 | -59.48818 | 173 ft | 0 kts | 345° |
| 2026-04-15 20:30 | 13.07876 | -59.48820 | 173 ft | 1 kts | 314° |
| 2026-04-15 20:31 | 13.07871 | -59.48826 | 173 ft | 2 kts | 229° |
| 2026-04-15 20:31 | 13.07857 | -59.48833 | 173 ft | 3 kts | 198° |
| 2026-04-15 20:31 | 13.07803 | -59.48854 | 173 ft | 15 kts | 205° |
| 2026-04-15 20:31 | 13.07730 | -59.48901 | 173 ft | 20 kts | 219° |
| 2026-04-15 20:32 | 13.07667 | -59.49068 | 173 ft | 21 kts | 256° |
| 2026-04-15 20:32 | 13.07642 | -59.49165 | 173 ft | 22 kts | 256° |
| 2026-04-15 20:32 | 13.07603 | -59.49322 | 173 ft | 23 kts | 255° |
| 2026-04-15 20:32 | 13.07563 | -59.49489 | 172 ft | 24 kts | 255° |
| 2026-04-15 20:33 | 13.07522 | -59.49660 | 173 ft | 25 kts | 255° |
| 2026-04-15 20:33 | 13.07480 | -59.49833 | 173 ft | 26 kts | 255° |
| 2026-04-15 20:33 | 13.07436 | -59.50011 | 173 ft | 25 kts | 255° |
| 2026-04-15 20:33 | 13.07394 | -59.50185 | 173 ft | 25 kts | 255° |
| 2026-04-15 20:34 | 13.07350 | -59.50357 | 173 ft | 25 kts | 255° |
| 2026-04-15 20:34 | 13.07307 | -59.50529 | 173 ft | 25 kts | 256° |
| 2026-04-15 20:34 | 13.07267 | -59.50688 | 173 ft | 20 kts | 247° |
| 2026-04-15 20:34 | 13.07177 | -59.50714 | 173 ft | 11 kts | 166° |
| 2026-04-15 20:35 | 13.07120 | -59.50699 | 173 ft | 6 kts | 166° |
| 2026-04-15 20:35 | 13.07106 | -59.50684 | 173 ft | 0 kts | 109° |
| 2026-04-15 20:35 | 13.07109 | -59.50646 | 173 ft | 11 kts | 77° |
| 2026-04-15 20:35 | 13.07158 | -59.50449 | 174 ft | 54 kts | 76° |
| 2026-04-15 20:36 | 13.07301 | -59.49868 | 174 ft | 109 kts | 76° |
| 2026-04-15 20:36 | 13.07520 | -59.48998 | 351 ft | 137 kts | 78° |
| 2026-04-15 20:36 | 13.07773 | -59.48047 | 843 ft | 143 kts | 78° |
| 2026-04-15 20:37 | 13.06983 | -59.46198 | 1894 ft | 158 kts | 157° |
| 2026-04-15 20:37 | 13.05859 | -59.46177 | 2350 ft | 176 kts | 196° |
| 2026-04-15 20:37 | 13.04888 | -59.47004 | 2803 ft | 189 kts | 220° |
| 2026-04-15 20:37 | 13.03965 | -59.48020 | 3261 ft | 197 kts | 222° |
| 2026-04-15 20:38 | 13.03030 | -59.49068 | 3710 ft | 202 kts | 223° |
| 2026-04-15 20:38 | 13.02072 | -59.50147 | 4172 ft | 206 kts | 223° |
| 2026-04-15 20:38 | 13.01097 | -59.51246 | 4650 ft | 208 kts | 223° |
| 2026-04-15 20:38 | 13.00128 | -59.52339 | 5099 ft | 210 kts | 223° |
| 2026-04-15 20:39 | 12.99142 | -59.53448 | 5551 ft | 210 kts | 224° |
| 2026-04-15 20:39 | 12.98148 | -59.54563 | 5909 ft | 217 kts | 223° |
| 2026-04-15 20:39 | 12.97101 | -59.55724 | 6235 ft | 224 kts | 223° |
| 2026-04-15 20:39 | 12.96038 | -59.56909 | 6541 ft | 228 kts | 223° |
| 2026-04-15 20:40 | 12.94822 | -59.57924 | 6852 ft | 225 kts | 206° |
| 2026-04-15 20:40 | 12.93454 | -59.58743 | 7158 ft | 228 kts | 206° |
| 2026-04-15 20:40 | 12.92067 | -59.59549 | 7467 ft | 230 kts | 206° |
| 2026-04-15 20:40 | 12.90700 | -59.60396 | 7770 ft | 234 kts | 208° |
| 2026-04-15 20:41 | 12.89326 | -59.61315 | 8087 ft | 235 kts | 209° |
| 2026-04-15 20:41 | 12.88101 | -59.62393 | 8403 ft | 239 kts | 233° |
| 2026-04-15 20:41 | 12.87483 | -59.63991 | 8727 ft | 243 kts | 250° |
| 2026-04-15 20:41 | 12.87036 | -59.65681 | 9044 ft | 245 kts | 252° |
| 2026-04-15 20:42 | 12.86595 | -59.67363 | 9367 ft | 245 kts | 251° |
| 2026-04-15 20:42 | 12.86113 | -59.69023 | 9712 ft | 245 kts | 250° |
| 2026-04-15 20:42 | 12.85566 | -59.70702 | 9946 ft | 249 kts | 248° |
| 2026-04-15 20:42 | 12.85018 | -59.72398 | 10176 ft | 251 kts | 249° |
| 2026-04-15 20:43 | 12.84467 | -59.74080 | 10409 ft | 253 kts | 249° |
| 2026-04-15 20:43 | 12.83910 | -59.75801 | 10646 ft | 254 kts | 249° |
| 2026-04-15 20:43 | 12.83361 | -59.77511 | 10874 ft | 255 kts | 250° |
| 2026-04-15 20:43 | 12.82805 | -59.79237 | 11110 ft | 254 kts | 249° |
| 2026-04-15 20:44 | 12.82241 | -59.80954 | 11348 ft | 254 kts | 249° |
| 2026-04-15 20:44 | 12.81678 | -59.82660 | 11587 ft | 254 kts | 247° |
| 2026-04-15 20:44 | 12.81116 | -59.84382 | 11834 ft | 253 kts | 249° |
| 2026-04-15 20:44 | 12.80570 | -59.86093 | 12069 ft | 253 kts | 248° |
| 2026-04-15 20:45 | 12.80027 | -59.87808 | 12304 ft | 252 kts | 248° |
| 2026-04-15 20:45 | 12.79664 | -59.88938 | 12476 ft | 251 kts | 249° |
| 2026-04-15 20:45 | 12.79123 | -59.90635 | 12725 ft | 250 kts | 249° |
| 2026-04-15 20:45 | 12.78395 | -59.92878 | 12969 ft | 253 kts | 249° |
| 2026-04-15 20:46 | 12.78030 | -59.94019 | 13053 ft | 254 kts | 248° |
| 2026-04-15 20:46 | 12.77473 | -59.95757 | 13179 ft | 256 kts | 249° |
| 2026-04-15 20:46 | 12.76734 | -59.98078 | 13350 ft | 259 kts | 248° |
| 2026-04-15 20:46 | 12.76351 | -59.99264 | 13440 ft | 259 kts | 249° |
| 2026-04-15 20:47 | 12.75784 | -60.01009 | 13566 ft | 260 kts | 248° |
| 2026-04-15 20:47 | 12.75207 | -60.02775 | 13685 ft | 261 kts | 249° |
| 2026-04-15 20:47 | 12.74639 | -60.04526 | 13797 ft | 262 kts | 248° |
| 2026-04-15 20:47 | 12.74059 | -60.06321 | 13853 ft | 264 kts | 249° |
| 2026-04-15 20:48 | 12.73487 | -60.08101 | 13875 ft | 267 kts | 249° |
| 2026-04-15 20:48 | 12.72902 | -60.09933 | 13900 ft | 270 kts | 249° |
| 2026-04-15 20:48 | 12.72320 | -60.11746 | 13905 ft | 272 kts | 249° |
| 2026-04-15 20:48 | 12.71722 | -60.13600 | 13907 ft | 274 kts | 249° |
| 2026-04-15 20:49 | 12.71114 | -60.15466 | 13912 ft | 276 kts | 248° |
| 2026-04-15 20:49 | 12.70519 | -60.17311 | 13912 ft | 276 kts | 249° |
| 2026-04-15 20:49 | 12.69916 | -60.19186 | 13914 ft | 277 kts | 249° |
| 2026-04-15 20:49 | 12.69305 | -60.21071 | 13912 ft | 278 kts | 249° |
| 2026-04-15 20:50 | 12.68698 | -60.22941 | 13913 ft | 278 kts | 249° |
| 2026-04-15 20:50 | 12.68085 | -60.24832 | 13913 ft | 279 kts | 249° |
| 2026-04-15 20:50 | 12.67483 | -60.26691 | 13913 ft | 279 kts | 249° |
| 2026-04-15 20:50 | 12.66870 | -60.28588 | 13914 ft | 279 kts | 249° |
| 2026-04-15 20:51 | 12.66265 | -60.30480 | 13909 ft | 279 kts | 249° |
| 2026-04-15 20:51 | 12.65659 | -60.32352 | 13909 ft | 279 kts | 249° |
| 2026-04-15 20:51 | 12.65042 | -60.34256 | 13908 ft | 280 kts | 249° |
| 2026-04-15 20:51 | 12.64424 | -60.36145 | 13908 ft | 280 kts | 249° |
| 2026-04-15 20:52 | 12.63808 | -60.38042 | 13911 ft | 280 kts | 249° |
| 2026-04-15 20:52 | 12.63201 | -60.39922 | 13911 ft | 280 kts | 249° |
| 2026-04-15 20:52 | 12.62595 | -60.41802 | 13911 ft | 280 kts | 249° |
| 2026-04-15 20:52 | 12.61976 | -60.43706 | 13911 ft | 280 kts | 249° |
| 2026-04-15 20:53 | 12.61359 | -60.45587 | 13909 ft | 280 kts | 249° |
| 2026-04-15 20:53 | 12.60740 | -60.47478 | 13910 ft | 280 kts | 249° |
| 2026-04-15 20:53 | 12.60130 | -60.49360 | 13909 ft | 280 kts | 249° |
| 2026-04-15 20:53 | 12.59518 | -60.51271 | 13910 ft | 280 kts | 249° |
| 2026-04-15 20:54 | 12.58904 | -60.53165 | 13911 ft | 280 kts | 249° |
| 2026-04-15 20:54 | 12.58254 | -60.55019 | 13908 ft | 278 kts | 245° |
| 2026-04-15 20:54 | 12.57414 | -60.56816 | 13909 ft | 278 kts | 240° |
| 2026-04-15 20:54 | 12.56530 | -60.58544 | 13907 ft | 278 kts | 240° |
| 2026-04-15 20:55 | 12.55638 | -60.60316 | 13904 ft | 278 kts | 241° |
| 2026-04-15 20:55 | 12.54799 | -60.62072 | 13908 ft | 278 kts | 243° |
| 2026-04-15 20:55 | 12.53976 | -60.63865 | 13904 ft | 278 kts | 243° |
| 2026-04-15 20:55 | 12.53145 | -60.65665 | 13905 ft | 279 kts | 243° |
| 2026-04-15 20:56 | 12.52318 | -60.67452 | 13904 ft | 279 kts | 243° |
| 2026-04-15 20:56 | 12.51492 | -60.69244 | 13903 ft | 278 kts | 242° |
| 2026-04-15 20:56 | 12.50658 | -60.71057 | 13902 ft | 279 kts | 242° |
| 2026-04-15 20:56 | 12.49838 | -60.72829 | 13902 ft | 278 kts | 243° |
| 2026-04-15 20:57 | 12.49001 | -60.74614 | 13906 ft | 279 kts | 242° |
| 2026-04-15 20:57 | 12.48159 | -60.76402 | 13906 ft | 279 kts | 242° |
| 2026-04-15 20:57 | 12.47308 | -60.78207 | 13906 ft | 278 kts | 242° |
| 2026-04-15 20:57 | 12.46482 | -60.79968 | 13899 ft | 278 kts | 243° |
| 2026-04-15 20:58 | 12.45639 | -60.81777 | 13902 ft | 278 kts | 242° |
| 2026-04-15 20:58 | 12.44812 | -60.83543 | 13903 ft | 279 kts | 243° |
| 2026-04-15 20:58 | 12.43977 | -60.85339 | 13903 ft | 278 kts | 243° |
| 2026-04-15 20:58 | 12.43153 | -60.87111 | 13901 ft | 278 kts | 242° |
| 2026-04-15 20:59 | 12.42321 | -60.88902 | 13871 ft | 279 kts | 243° |
| 2026-04-15 20:59 | 12.41472 | -60.90709 | 13662 ft | 277 kts | 242° |
| 2026-04-15 20:59 | 12.40645 | -60.92462 | 13436 ft | 273 kts | 242° |
| 2026-04-15 20:59 | 12.39837 | -60.94190 | 13207 ft | 269 kts | 241° |
| 2026-04-15 21:00 | 12.39032 | -60.95911 | 12970 ft | 266 kts | 242° |
| 2026-04-15 21:00 | 12.38257 | -60.97580 | 12759 ft | 264 kts | 243° |
| 2026-04-15 21:00 | 12.37461 | -60.99277 | 12530 ft | 262 kts | 243° |
| 2026-04-15 21:00 | 12.36662 | -61.00971 | 12303 ft | 262 kts | 242° |
| 2026-04-15 21:01 | 12.35881 | -61.02627 | 12044 ft | 263 kts | 242° |
| 2026-04-15 21:01 | 12.35083 | -61.04326 | 11751 ft | 262 kts | 242° |
| 2026-04-15 21:01 | 12.34298 | -61.06012 | 11467 ft | 262 kts | 242° |
| 2026-04-15 21:01 | 12.33514 | -61.07685 | 11174 ft | 263 kts | 243° |
| 2026-04-15 21:02 | 12.32722 | -61.09371 | 10893 ft | 263 kts | 242° |
| 2026-04-15 21:02 | 12.31926 | -61.11060 | 10616 ft | 264 kts | 243° |
| 2026-04-15 21:02 | 12.31140 | -61.12738 | 10340 ft | 264 kts | 243° |
| 2026-04-15 21:02 | 12.30347 | -61.14437 | 10062 ft | 265 kts | 243° |
| 2026-04-15 21:03 | 12.29543 | -61.16161 | 9786 ft | 266 kts | 243° |
| 2026-04-15 21:03 | 12.28750 | -61.17847 | 9491 ft | 266 kts | 243° |
| 2026-04-15 21:03 | 12.27947 | -61.19549 | 9177 ft | 266 kts | 243° |
| 2026-04-15 21:03 | 12.27139 | -61.21274 | 8874 ft | 267 kts | 242° |
| 2026-04-15 21:04 | 12.26349 | -61.22974 | 8590 ft | 267 kts | 243° |
| 2026-04-15 21:04 | 12.25553 | -61.24703 | 8293 ft | 268 kts | 242° |
| 2026-04-15 21:04 | 12.24757 | -61.26401 | 8009 ft | 268 kts | 242° |
| 2026-04-15 21:04 | 12.23942 | -61.28124 | 7722 ft | 268 kts | 242° |
| 2026-04-15 21:05 | 12.23143 | -61.29795 | 7420 ft | 248 kts | 242° |
| 2026-04-15 21:05 | 12.22437 | -61.31312 | 7134 ft | 229 kts | 241° |
| 2026-04-15 21:05 | 12.21840 | -61.32761 | 6844 ft | 216 kts | 255° |
| 2026-04-15 21:05 | 12.21786 | -61.34260 | 6575 ft | 210 kts | 271° |
| 2026-04-15 21:06 | 12.21908 | -61.35729 | 6293 ft | 204 kts | 274° |
| 2026-04-15 21:06 | 12.22062 | -61.37152 | 6012 ft | 202 kts | 274° |
| 2026-04-15 21:06 | 12.22213 | -61.38581 | 5715 ft | 201 kts | 273° |
| 2026-04-15 21:06 | 12.22331 | -61.39996 | 5427 ft | 199 kts | 272° |
| 2026-04-15 21:07 | 12.22417 | -61.41399 | 5145 ft | 197 kts | 271° |
| 2026-04-15 21:07 | 12.22495 | -61.42786 | 4989 ft | 195 kts | 271° |
| 2026-04-15 21:07 | 12.22576 | -61.44234 | 4854 ft | 213 kts | 270° |
| 2026-04-15 21:07 | 12.22656 | -61.45810 | 4717 ft | 229 kts | 271° |
| 2026-04-15 21:08 | 12.22731 | -61.47463 | 4564 ft | 240 kts | 271° |
| 2026-04-15 21:08 | 12.22807 | -61.49196 | 4420 ft | 245 kts | 267° |
| 2026-04-15 21:08 | 12.22573 | -61.50908 | 4280 ft | 245 kts | 254° |
| 2026-04-15 21:08 | 12.22165 | -61.52583 | 4123 ft | 240 kts | 251° |
| 2026-04-15 21:09 | 12.21715 | -61.54223 | 3964 ft | 236 kts | 249° |
| 2026-04-15 21:09 | 12.21249 | -61.55818 | 3818 ft | 233 kts | 249° |
| 2026-04-15 21:09 | 12.20775 | -61.57374 | 3683 ft | 231 kts | 249° |
| 2026-04-15 21:09 | 12.20294 | -61.58944 | 3522 ft | 229 kts | 249° |
| 2026-04-15 21:10 | 12.19821 | -61.60495 | 3382 ft | 228 kts | 249° |
| 2026-04-15 21:10 | 12.19350 | -61.62032 | 3305 ft | 224 kts | 249° |
| 2026-04-15 21:10 | 12.18886 | -61.63550 | 3283 ft | 224 kts | 249° |
| 2026-04-15 21:10 | 12.18417 | -61.65069 | 3279 ft | 227 kts | 249° |
| 2026-04-15 21:11 | 12.17928 | -61.66609 | 3243 ft | 226 kts | 249° |
| 2026-04-15 21:11 | 12.17409 | -61.68100 | 3185 ft | 225 kts | 248° |
| 2026-04-15 21:11 | 12.16907 | -61.69619 | 3156 ft | 226 kts | 248° |
| 2026-04-15 21:11 | 12.16434 | -61.71144 | 3118 ft | 225 kts | 250° |
| 2026-04-15 21:12 | 12.15935 | -61.72664 | 3070 ft | 225 kts | 249° |
| 2026-04-15 21:12 | 12.15440 | -61.74183 | 3019 ft | 227 kts | 248° |
| 2026-04-15 21:12 | 12.14948 | -61.75723 | 2959 ft | 230 kts | 249° |
| 2026-04-15 21:12 | 12.14447 | -61.77276 | 2888 ft | 233 kts | 248° |
| 2026-04-15 21:13 | 12.13946 | -61.78860 | 2805 ft | 235 kts | 248° |
| 2026-04-15 21:13 | 12.13433 | -61.80468 | 2760 ft | 238 kts | 249° |
| 2026-04-15 21:13 | 12.12868 | -61.82057 | 2679 ft | 235 kts | 239° |
| 2026-04-15 21:13 | 12.11966 | -61.83334 | 2597 ft | 211 kts | 221° |
| 2026-04-15 21:14 | 12.10942 | -61.84285 | 2478 ft | 188 kts | 212° |
| 2026-04-15 21:14 | 12.09910 | -61.85071 | 2378 ft | 180 kts | 208° |
| 2026-04-15 21:14 | 12.08856 | -61.85663 | 2291 ft | 171 kts | 197° |
| 2026-04-15 21:14 | 12.07766 | -61.86116 | 2194 ft | 167 kts | 193° |
| 2026-04-15 21:15 | 12.06685 | -61.86524 | 2084 ft | 165 kts | 192° |
| 2026-04-15 21:15 | 12.05614 | -61.86864 | 1987 ft | 158 kts | 187° |
| 2026-04-15 21:15 | 12.04551 | -61.87109 | 1951 ft | 151 kts | 184° |
| 2026-04-15 21:15 | 12.03545 | -61.87333 | 1850 ft | 145 kts | 180° |
| 2026-04-15 21:16 | 12.02668 | -61.87100 | 1745 ft | 126 kts | 141° |
| 2026-04-15 21:16 | 12.02150 | -61.86420 | 1635 ft | 122 kts | 116° |
| 2026-04-15 21:16 | 12.01787 | -61.85620 | 1455 ft | 126 kts | 115° |
| 2026-04-15 21:16 | 12.01404 | -61.84807 | 1380 ft | 127 kts | 115° |
| 2026-04-15 21:17 | 12.01068 | -61.83962 | 1254 ft | 123 kts | 112° |
| 2026-04-15 21:17 | 12.00773 | -61.83202 | 1035 ft | 111 kts | 108° |
| 2026-04-15 21:17 | 12.00593 | -61.82449 | 762 ft | 108 kts | 101° |
| 2026-04-15 21:17 | 12.00508 | -61.81653 | 469 ft | 117 kts | 98° |
| 2026-04-15 21:18 | 12.00458 | -61.80807 | 238 ft | 123 kts | 94° |
| 2026-04-15 21:18 | 12.00427 | -61.79946 | 62 ft | 123 kts | 92° |
| 2026-04-15 21:18 | 12.00409 | -61.79149 | 24 ft | 80 kts | 89° |
| 2026-04-15 21:18 | 12.00408 | -61.78807 | 26 ft | 37 kts | 89° |
| 2026-04-15 21:19 | 12.00411 | -61.78630 | 26 ft | 12 kts | 79° |
| 2026-04-15 21:19 | 12.00491 | -61.78603 | 24 ft | 17 kts | 1° |
| 2026-04-15 21:19 | 12.00600 | -61.78584 | 25 ft | 12 kts | 12° |
| 2026-04-15 21:19 | 12.00659 | -61.78582 | 26 ft | 0 kts | 0° |